Time;durP1;ratioP1;P1;durP2;ratioP2;P2;SDS_P1;SDS_P2;PMS_P1;PMS_P2;Temp;Humidity;BMP_temperature;BMP_pressure;BME280_temperature;BME280_humidity;BME280_pressure;Samples;Min_cycle;Max_cycle;Signal;HPM_P1;HPM_P2
2022/05/14 00:01:06;;;;;;;8.48;5.20;;;;;;;;;;7384025;19;20128;-77
2022/05/14 00:03:34;;;;;;;7.35;5.68;;;;;;;;;;7379239;19;20609;-78
2022/05/14 00:06:01;;;;;;;8.98;5.93;;;;;;;;;;7378369;19;20191;-78
2022/05/14 00:08:28;;;;;;;6.45;5.53;;;;;;;;;;7379645;19;20139;-77
2022/05/14 00:13:39;;;;;;;8.30;5.60;;;;;;;;;;7371980;19;20790;-77
2022/05/14 00:16:06;;;;;;;6.00;5.40;;;;;;;;;;7377863;19;20159;-79
2022/05/14 00:18:33;;;;;;;7.18;6.10;;;;;;;;;;7386637;19;20131;-78
2022/05/14 00:20:59;;;;;;;8.23;6.60;;;;;;;;;;7374198;19;20635;-78
2022/05/14 00:23:25;;;;;;;15.68;9.30;;;;;;;;;;7371682;19;20696;-76
2022/05/14 00:25:51;;;;;;;13.33;9.13;;;;;;;;;;7375642;19;20145;-77
2022/05/14 00:28:17;;;;;;;10.17;7.70;;;;;;;;;;7384530;19;20141;-81
2022/05/14 00:30:43;;;;;;;6.82;5.70;;;;;;;;;;7376120;19;20136;-79
2022/05/14 00:33:09;;;;;;;7.13;5.82;;;;;;;;;;7375521;19;20133;-80
2022/05/14 00:35:36;;;;;;;8.63;6.20;;;;;;;;;;7387344;19;20168;-79
2022/05/14 00:38:02;;;;;;;9.23;7.10;;;;;;;;;;7389925;19;20537;-79
2022/05/14 00:40:33;;;;;;;8.30;6.63;;;;;;;;;;7387051;19;20156;-79
2022/05/14 00:43:00;;;;;;;9.13;6.90;;;;;;;;;;7378880;19;20152;-79
2022/05/14 00:45:26;;;;;;;8.40;7.50;;;;;;;;;;7380409;19;20172;-77
2022/05/14 00:47:53;;;;;;;9.10;7.43;;;;;;;;;;7385805;19;20200;-79
2022/05/14 00:50:30;;;;;;;8.57;7.77;;;;;;;;;;7405422;19;20144;-83
2022/05/14 00:53:02;;;;;;;9.10;7.43;;;;;;;;;;7414170;19;20117;-78
2022/05/14 00:55:29;;;;;;;9.10;6.97;;;;;;;;;;7400145;19;20152;-76
2022/05/14 00:57:55;;;;;;;11.40;7.80;;;;;;;;;;7412079;19;20141;-79
2022/05/14 01:00:22;;;;;;;8.50;7.63;;;;;;;;;;7427911;19;20126;-81
2022/05/14 01:02:49;;;;;;;10.57;7.53;;;;;;;;;;7421316;19;20162;-78
2022/05/14 01:05:17;;;;;;;8.57;6.40;;;;;;;;;;7424347;19;20133;-76
2022/05/14 01:07:43;;;;;;;10.37;6.40;;;;;;;;;;7413278;19;20611;-76
2022/05/14 01:10:10;;;;;;;7.40;6.60;;;;;;;;;;7391730;19;20140;-76
2022/05/14 01:12:38;;;;;;;8.37;6.40;;;;;;;;;;7387514;19;20165;-76
2022/05/14 01:15:13;;;;;;;10.67;6.60;;;;;;;;;;7386713;19;20153;-76
2022/05/14 01:17:39;;;;;;;10.13;6.50;;;;;;;;;;7388265;19;20245;-76
2022/05/14 01:20:06;;;;;;;7.20;6.37;;;;;;;;;;7395096;19;20990;-76
2022/05/14 01:22:46;;;;;;;8.33;6.87;;;;;;;;;;7393057;19;20518;-77
2022/05/14 01:28:07;;;;;;;9.23;6.40;;;;;;;;;;7396256;19;20484;-78
2022/05/14 01:30:33;;;;;;;10.63;6.90;;;;;;;;;;7388835;19;20196;-78
2022/05/14 01:33:05;;;;;;;9.77;7.40;;;;;;;;;;7390690;19;20153;-78
2022/05/14 01:35:35;;;;;;;9.47;6.90;;;;;;;;;;7394715;19;20651;-77
2022/05/14 01:38:01;;;;;;;9.43;7.03;;;;;;;;;;7393076;19;20650;-77
2022/05/14 01:40:28;;;;;;;9.07;6.80;;;;;;;;;;7388850;19;20148;-78
2022/05/14 01:42:54;;;;;;;8.57;6.83;;;;;;;;;;7386991;19;20153;-78
2022/05/14 01:45:20;;;;;;;10.67;6.80;;;;;;;;;;7385644;19;20161;-78
2022/05/14 01:47:46;;;;;;;9.43;6.70;;;;;;;;;;7380832;19;20141;-79
2022/05/14 01:50:12;;;;;;;11.50;7.20;;;;;;;;;;7383861;19;20620;-78
2022/05/14 01:52:38;;;;;;;9.50;6.40;;;;;;;;;;7390366;19;20236;-78
2022/05/14 01:55:04;;;;;;;9.57;6.60;;;;;;;;;;7384748;19;20148;-78
2022/05/14 01:57:30;;;;;;;10.27;6.90;;;;;;;;;;7388890;19;20159;-85
2022/05/14 01:59:56;;;;;;;9.20;6.63;;;;;;;;;;7390410;19;20208;-78
2022/05/14 02:02:22;;;;;;;10.60;6.63;;;;;;;;;;7389295;19;20531;-78
2022/05/14 02:04:48;;;;;;;8.53;6.40;;;;;;;;;;7384870;19;20168;-78
2022/05/14 02:07:14;;;;;;;10.43;6.50;;;;;;;;;;7390991;19;20196;-78
2022/05/14 02:09:40;;;;;;;9.30;6.87;;;;;;;;;;7388989;19;20129;-79
2022/05/14 02:12:07;;;;;;;8.20;6.87;;;;;;;;;;7387439;19;20201;-80
2022/05/14 02:14:33;;;;;;;9.10;6.43;;;;;;;;;;7385175;19;20240;-78
2022/05/14 02:16:59;;;;;;;9.37;6.70;;;;;;;;;;7387542;19;20595;-78
2022/05/14 02:19:25;;;;;;;8.50;6.07;;;;;;;;;;7393324;19;20121;-78
2022/05/14 02:21:51;;;;;;;9.60;7.00;;;;;;;;;;7394895;19;20642;-79
2022/05/14 02:24:17;;;;;;;10.90;6.60;;;;;;;;;;7393816;19;20156;-78
2022/05/14 02:26:43;;;;;;;9.23;6.50;;;;;;;;;;7394114;19;20146;-78
2022/05/14 02:29:09;;;;;;;9.83;6.10;;;;;;;;;;7389339;19;20145;-77
2022/05/14 02:31:35;;;;;;;10.30;6.73;;;;;;;;;;7383998;19;20149;-77
2022/05/14 02:34:01;;;;;;;9.07;6.33;;;;;;;;;;7384809;19;20161;-77
2022/05/14 02:36:27;;;;;;;9.07;6.57;;;;;;;;;;7386927;19;20173;-78
2022/05/14 02:38:53;;;;;;;10.80;6.93;;;;;;;;;;7393201;19;20157;-78
2022/05/14 02:41:19;;;;;;;9.40;6.60;;;;;;;;;;7377925;19;20196;-79
2022/05/14 02:43:45;;;;;;;9.17;6.80;;;;;;;;;;7381378;19;20173;-79
2022/05/14 02:46:14;;;;;;;8.30;6.90;;;;;;;;;;7382164;19;20145;-78
2022/05/14 02:48:41;;;;;;;10.43;7.20;;;;;;;;;;7379433;19;20592;-79
2022/05/14 02:51:07;;;;;;;10.27;6.93;;;;;;;;;;7365995;19;20151;-80
2022/05/14 02:53:33;;;;;;;8.30;6.93;;;;;;;;;;7377312;19;20133;-82
2022/05/14 02:55:59;;;;;;;11.33;7.13;;;;;;;;;;7381606;19;20169;-78
2022/05/14 03:01:10;;;;;;;9.30;7.57;;;;;;;;;;7372059;19;20138;-78
2022/05/14 03:03:36;;;;;;;8.93;7.23;;;;;;;;;;7382997;19;20133;-80
2022/05/14 03:06:02;;;;;;;18.70;7.43;;;;;;;;;;7374760;19;20175;-79
2022/05/14 03:08:31;;;;;;;8.77;7.00;;;;;;;;;;7375532;19;20617;-80
2022/05/14 03:10:57;;;;;;;10.83;7.27;;;;;;;;;;7380075;19;20217;-77
2022/05/14 03:13:23;;;;;;;9.27;7.33;;;;;;;;;;7371564;19;20603;-79
2022/05/14 03:15:49;;;;;;;10.83;7.20;;;;;;;;;;7382799;19;20204;-77
2022/05/14 03:18:15;;;;;;;8.33;6.53;;;;;;;;;;7386001;19;20155;-82
2022/05/14 03:20:41;;;;;;;9.07;7.30;;;;;;;;;;7378906;19;20476;-78
2022/05/14 03:23:07;;;;;;;10.13;7.03;;;;;;;;;;7379470;19;20137;-78
2022/05/14 03:25:33;;;;;;;8.20;7.27;;;;;;;;;;7382892;19;20149;-77
2022/05/14 03:27:59;;;;;;;10.43;6.80;;;;;;;;;;7391516;19;20196;-79
2022/05/14 03:30:25;;;;;;;8.33;7.07;;;;;;;;;;7382986;19;20533;-81
2022/05/14 03:32:50;;;;;;;9.57;6.93;;;;;;;;;;7379976;19;20165;-80
2022/05/14 03:35:17;;;;;;;11.43;6.53;;;;;;;;;;7377933;19;20520;-78
2022/05/14 03:37:43;;;;;;;11.83;7.83;;;;;;;;;;7382309;19;20141;-78
2022/05/14 03:40:10;;;;;;;13.13;7.97;;;;;;;;;;7379406;19;20157;-78
2022/05/14 03:42:36;;;;;;;12.27;7.47;;;;;;;;;;7377665;19;20149;-81
2022/05/14 03:45:03;;;;;;;10.73;7.50;;;;;;;;;;7380382;19;20161;-79
2022/05/14 03:47:29;;;;;;;9.00;7.57;;;;;;;;;;7383699;19;20151;-77
2022/05/14 03:49:55;;;;;;;12.13;7.60;;;;;;;;;;7376001;19;20563;-78
2022/05/14 03:52:21;;;;;;;10.33;7.83;;;;;;;;;;7383196;19;20133;-78
2022/05/14 03:54:47;;;;;;;13.70;8.07;;;;;;;;;;7378510;19;20157;-79
2022/05/14 03:57:14;;;;;;;7.93;7.10;;;;;;;;;;7372344;19;20626;-77
2022/05/14 03:59:40;;;;;;;8.40;7.43;;;;;;;;;;7368105;19;20165;-78
2022/05/14 04:02:06;;;;;;;10.53;7.77;;;;;;;;;;7382708;19;20133;-78
2022/05/14 04:04:33;;;;;;;10.23;7.53;;;;;;;;;;7381690;19;20583;-77
2022/05/14 04:06:59;;;;;;;9.60;7.43;;;;;;;;;;7377101;19;20132;-82
2022/05/14 04:09:25;;;;;;;9.27;7.37;;;;;;;;;;7381503;19;20132;-78
2022/05/14 04:11:52;;;;;;;10.77;7.50;;;;;;;;;;7387958;19;20161;-80
2022/05/14 04:14:18;;;;;;;11.20;8.07;;;;;;;;;;7377982;19;20161;-78
2022/05/14 04:16:44;;;;;;;10.47;7.30;;;;;;;;;;7380798;19;20149;-80
2022/05/14 04:19:11;;;;;;;9.00;7.40;;;;;;;;;;7379803;19;20133;-78
2022/05/14 04:21:38;;;;;;;7.60;6.70;;;;;;;;;;7383480;19;20614;-78
2022/05/14 04:24:04;;;;;;;10.37;7.13;;;;;;;;;;7370941;19;20752;-79
2022/05/14 04:26:30;;;;;;;8.67;6.97;;;;;;;;;;7386622;19;20633;-79
2022/05/14 04:28:56;;;;;;;11.70;7.87;;;;;;;;;;7383064;19;20253;-78
2022/05/14 04:31:23;;;;;;;9.77;6.67;;;;;;;;;;7385025;19;20220;-78
2022/05/14 04:33:49;;;;;;;13.90;7.83;;;;;;;;;;7376712;19;20120;-77
2022/05/14 04:36:16;;;;;;;10.57;7.13;;;;;;;;;;7378259;19;20156;-80
2022/05/14 04:38:42;;;;;;;8.83;7.00;;;;;;;;;;7383717;19;20148;-77
2022/05/14 04:41:08;;;;;;;7.73;6.80;;;;;;;;;;7385892;19;20160;-79
2022/05/14 04:43:34;;;;;;;8.27;6.87;;;;;;;;;;7381269;19;20489;-77
2022/05/14 04:46:01;;;;;;;9.13;7.37;;;;;;;;;;7380584;19;20176;-77
2022/05/14 04:48:27;;;;;;;8.97;6.13;;;;;;;;;;7390115;19;20140;-78
2022/05/14 04:50:54;;;;;;;7.83;6.83;;;;;;;;;;7369369;19;20209;-77
2022/05/14 04:53:20;;;;;;;8.13;6.90;;;;;;;;;;7367343;19;20155;-78
2022/05/14 04:55:47;;;;;;;11.27;7.93;;;;;;;;;;7384809;19;20156;-77
2022/05/14 04:58:13;;;;;;;10.27;6.73;;;;;;;;;;7385596;19;20141;-77
2022/05/14 05:00:41;;;;;;;11.00;6.60;;;;;;;;;;7388770;19;20125;-77
2022/05/14 05:03:19;;;;;;;9.30;6.73;;;;;;;;;;7384737;19;20137;-77
2022/05/14 05:05:48;;;;;;;9.60;6.87;;;;;;;;;;7387678;19;20180;-80
2022/05/14 05:08:14;;;;;;;10.33;7.53;;;;;;;;;;7380399;19;22890;-77
2022/05/14 05:10:41;;;;;;;9.07;6.37;;;;;;;;;;7381670;19;20193;-79
2022/05/14 05:13:11;;;;;;;7.57;6.63;;;;;;;;;;7374714;19;20140;-78
2022/05/14 05:15:37;;;;;;;9.63;6.60;;;;;;;;;;7385440;19;20181;-78
2022/05/14 05:18:04;;;;;;;9.83;5.87;;;;;;;;;;7383625;19;20493;-79
2022/05/14 05:20:30;;;;;;;9.67;6.37;;;;;;;;;;7381316;19;20669;-78
2022/05/14 05:22:56;;;;;;;8.97;6.47;;;;;;;;;;7380403;19;20114;-78
2022/05/14 05:25:22;;;;;;;11.03;6.70;;;;;;;;;;7379765;19;20682;-79
2022/05/14 05:27:48;;;;;;;9.80;7.00;;;;;;;;;;7387679;19;20132;-79
2022/05/14 05:30:14;;;;;;;10.57;6.80;;;;;;;;;;7382409;19;20129;-78
2022/05/14 05:32:40;;;;;;;7.23;5.97;;;;;;;;;;7378185;19;20129;-80
2022/05/14 05:35:07;;;;;;;13.93;6.83;;;;;;;;;;7380209;19;20548;-78
2022/05/14 05:37:33;;;;;;;8.17;6.10;;;;;;;;;;7390331;19;20151;-78
2022/05/14 05:39:59;;;;;;;6.93;5.47;;;;;;;;;;7397660;19;20587;-78
2022/05/14 05:42:25;;;;;;;10.60;6.23;;;;;;;;;;7382730;19;20121;-78
2022/05/14 05:44:51;;;;;;;8.23;5.63;;;;;;;;;;7390157;19;20184;-78
2022/05/14 05:47:17;;;;;;;7.63;5.50;;;;;;;;;;7382075;19;20133;-78
2022/05/14 05:49:43;;;;;;;7.17;6.23;;;;;;;;;;7389392;19;20611;-78
2022/05/14 05:52:11;;;;;;;12.53;6.17;;;;;;;;;;7390336;19;20137;-78
2022/05/14 05:57:31;;;;;;;7.33;5.70;;;;;;;;;;7380650;19;20133;-81
2022/05/14 05:59:57;;;;;;;7.10;5.80;;;;;;;;;;7387866;19;20186;-79
2022/05/14 06:02:23;;;;;;;11.03;5.60;;;;;;;;;;7383577;19;20129;-78
2022/05/14 06:04:49;;;;;;;9.57;5.87;;;;;;;;;;7387587;19;20152;-78
2022/05/14 06:07:15;;;;;;;7.80;5.43;;;;;;;;;;7393552;19;20188;-78
2022/05/14 06:09:41;;;;;;;5.73;5.13;;;;;;;;;;7393820;19;20893;-79
2022/05/14 18:09:26;;;;;;;3.42;2.30;;;;;;;;;;7386988;19;20192;-77
2022/05/14 18:11:52;;;;;;;2.88;2.50;;;;;;;;;;7393078;19;20200;-77
2022/05/14 18:14:23;;;;;;;8.32;6.82;;;;;;;;;;7389097;19;20160;-76
2022/05/14 18:16:50;;;;;;;7.82;4.75;;;;;;;;;;7394223;19;20153;-76
2022/05/14 18:19:18;;;;;;;6.63;4.85;;;;;;;;;;7393650;19;20645;-76
2022/05/14 18:21:44;;;;;;;7.18;4.55;;;;;;;;;;7383933;19;20140;-76
2022/05/14 18:24:10;;;;;;;8.65;4.63;;;;;;;;;;7385219;19;20546;-77
2022/05/14 18:26:48;;;;;;;8.13;5.65;;;;;;;;;;7391006;19;20216;-76
2022/05/14 18:29:16;;;;;;;5.25;4.30;;;;;;;;;;7386845;19;20139;-76
2022/05/14 18:31:42;;;;;;;5.70;4.03;;;;;;;;;;7389206;19;20144;-76
2022/05/14 18:34:12;;;;;;;5.68;3.83;;;;;;;;;;7389866;19;20155;-76
2022/05/14 18:36:39;;;;;;;5.88;3.10;;;;;;;;;;7382525;19;20176;-77
2022/05/14 18:39:05;;;;;;;5.13;3.33;;;;;;;;;;7384896;19;20133;-76
2022/05/14 18:41:32;;;;;;;5.40;3.45;;;;;;;;;;7387913;19;20160;-76
2022/05/14 18:43:59;;;;;;;4.22;3.15;;;;;;;;;;7385493;19;20498;-76
2022/05/14 18:46:27;;;;;;;5.65;2.70;;;;;;;;;;7387884;19;20180;-76
2022/05/14 18:48:53;;;;;;;4.53;3.03;;;;;;;;;;7383510;19;20190;-76
2022/05/14 18:51:20;;;;;;;4.13;2.80;;;;;;;;;;7391388;19;20156;-77
2022/05/14 18:53:46;;;;;;;5.38;4.07;;;;;;;;;;7390324;19;20140;-76
2022/05/14 18:56:13;;;;;;;7.20;5.32;;;;;;;;;;7388009;19;20149;-76
2022/05/14 18:58:39;;;;;;;10.75;8.00;;;;;;;;;;7389859;19;20292;-76
2022/05/14 19:01:05;;;;;;;12.38;9.20;;;;;;;;;;7391253;19;20125;-77
2022/05/14 19:03:31;;;;;;;6.45;4.65;;;;;;;;;;7391573;19;20156;-78
2022/05/14 19:08:42;;;;;;;9.73;3.67;;;;;;;;;;7389113;19;20601;-76
2022/05/14 19:11:08;;;;;;;7.15;3.60;;;;;;;;;;7390952;19;20186;-76
2022/05/14 19:13:34;;;;;;;7.53;4.20;;;;;;;;;;7378463;19;20196;-77
2022/05/14 19:16:01;;;;;;;6.55;4.13;;;;;;;;;;7378750;19;20159;-77
2022/05/14 19:18:27;;;;;;;4.68;2.58;;;;;;;;;;7384515;19;20400;-75
2022/05/14 19:20:53;;;;;;;6.75;2.72;;;;;;;;;;7381994;19;20657;-76
2022/05/14 19:23:20;;;;;;;3.50;3.10;;;;;;;;;;7383351;19;20117;-77
2022/05/14 19:25:46;;;;;;;4.88;3.60;;;;;;;;;;7375519;19;20153;-76
2022/05/14 19:28:13;;;;;;;4.03;3.00;;;;;;;;;;7371248;19;20132;-76
2022/05/14 19:30:39;;;;;;;3.50;2.80;;;;;;;;;;7378090;19;20152;-76
2022/05/14 19:33:05;;;;;;;4.32;2.88;;;;;;;;;;7380241;19;20555;-77
2022/05/14 19:35:33;;;;;;;4.18;2.95;;;;;;;;;;7380340;19;20220;-77
2022/05/14 19:38:02;;;;;;;3.00;2.63;;;;;;;;;;7380674;19;20567;-76
2022/05/14 19:40:38;;;;;;;4.15;2.88;;;;;;;;;;7384817;19;20151;-78
2022/05/14 19:43:06;;;;;;;4.43;2.75;;;;;;;;;;7377866;19;20149;-76
2022/05/14 19:45:35;;;;;;;4.90;2.78;;;;;;;;;;7378399;19;20527;-77
2022/05/14 19:48:02;;;;;;;5.38;3.50;;;;;;;;;;7386308;19;20535;-76
2022/05/14 19:50:28;;;;;;;4.70;3.72;;;;;;;;;;7379285;19;21091;-77
2022/05/14 19:52:55;;;;;;;5.60;3.35;;;;;;;;;;7379639;19;20148;-77
2022/05/14 19:55:21;;;;;;;5.35;3.30;;;;;;;;;;7381894;19;20196;-76
2022/05/14 19:57:47;;;;;;;6.15;3.70;;;;;;;;;;7381064;19;20555;-77
2022/05/14 20:00:13;;;;;;;6.93;3.60;;;;;;;;;;7387211;19;20145;-77
2022/05/14 20:02:43;;;;;;;6.60;4.13;;;;;;;;;;7381766;19;20136;-78
2022/05/14 20:05:09;;;;;;;4.53;3.83;;;;;;;;;;7385253;19;20148;-77
2022/05/14 20:07:36;;;;;;;7.07;3.97;;;;;;;;;;7392197;19;20211;-78
2022/05/14 20:10:02;;;;;;;5.63;3.80;;;;;;;;;;7390463;19;20645;-76
2022/05/14 20:12:28;;;;;;;7.00;4.43;;;;;;;;;;7380509;19;20133;-77
2022/05/14 20:14:54;;;;;;;4.45;3.97;;;;;;;;;;7378675;19;20157;-77
2022/05/14 20:22:50;;;;;;;14.40;8.33;;;;;;;;;;7390714;19;20140;-77
2022/05/14 20:25:17;;;;;;;10.07;6.73;;;;;;;;;;7386138;19;20152;-77
2022/05/14 20:27:43;;;;;;;10.83;6.90;;;;;;;;;;7383071;19;20125;-77
2022/05/14 20:30:10;;;;;;;10.07;7.20;;;;;;;;;;7387502;19;20140;-78
2022/05/14 20:32:36;;;;;;;8.97;6.10;;;;;;;;;;7382297;19;20630;-77
2022/05/14 20:35:02;;;;;;;8.37;6.03;;;;;;;;;;7382835;19;20149;-77
2022/05/14 20:37:28;;;;;;;9.63;6.40;;;;;;;;;;7378960;19;20121;-76
2022/05/14 20:39:54;;;;;;;9.17;6.33;;;;;;;;;;7385442;19;20662;-77
2022/05/14 20:42:21;;;;;;;11.13;7.07;;;;;;;;;;7386979;19;20149;-77
2022/05/14 20:44:48;;;;;;;8.83;6.07;;;;;;;;;;7382929;19;20145;-77
2022/05/14 20:47:14;;;;;;;8.10;6.23;;;;;;;;;;7380951;19;20173;-77
2022/05/14 20:49:40;;;;;;;8.47;5.80;;;;;;;;;;7386582;19;20117;-77
2022/05/14 20:52:07;;;;;;;9.30;5.23;;;;;;;;;;7390712;19;20233;-77
2022/05/14 20:54:33;;;;;;;7.43;4.83;;;;;;;;;;7386970;19;20188;-78
2022/05/14 20:56:59;;;;;;;8.47;6.03;;;;;;;;;;7385415;19;20159;-77
2022/05/14 20:59:26;;;;;;;13.63;6.90;;;;;;;;;;7389286;19;20133;-78
2022/05/14 21:01:52;;;;;;;10.13;5.90;;;;;;;;;;7390816;19;20117;-77
2022/05/14 21:04:22;;;;;;;10.23;6.27;;;;;;;;;;7381832;19;20148;-76
2022/05/14 21:06:48;;;;;;;10.43;6.47;;;;;;;;;;7394147;19;20160;-77
2022/05/14 21:09:14;;;;;;;10.17;6.03;;;;;;;;;;7399169;19;20496;-79
2022/05/14 21:11:40;;;;;;;8.60;5.60;;;;;;;;;;7395024;19;20144;-78
2022/05/14 21:14:07;;;;;;;9.30;5.87;;;;;;;;;;7393559;19;20138;-78
2022/05/14 21:16:44;;;;;;;8.23;5.47;;;;;;;;;;7397401;19;20156;-77
2022/05/14 21:19:14;;;;;;;11.30;6.27;;;;;;;;;;7386727;19;20192;-77
2022/05/14 21:21:40;;;;;;;7.47;5.63;;;;;;;;;;7391419;19;20137;-80
2022/05/14 21:24:06;;;;;;;9.63;6.30;;;;;;;;;;7391475;19;20757;-79
2022/05/14 21:26:32;;;;;;;7.37;5.63;;;;;;;;;;7399372;19;20135;-78
2022/05/14 21:28:58;;;;;;;9.70;5.47;;;;;;;;;;7382853;19;20133;-79
2022/05/14 21:31:24;;;;;;;5.43;4.70;;;;;;;;;;7396912;19;20140;-78
2022/05/14 21:39:20;;;;;;;7.37;5.00;;;;;;;;;;7396741;19;20144;-80
2022/05/14 21:41:46;;;;;;;6.93;5.13;;;;;;;;;;7375144;19;20117;-81
2022/05/14 21:44:12;;;;;;;7.80;5.20;;;;;;;;;;7388060;19;20132;-78
2022/05/14 21:46:38;;;;;;;7.83;5.63;;;;;;;;;;7397123;19;20542;-79
2022/05/14 21:49:04;;;;;;;9.37;5.90;;;;;;;;;;7395410;19;20137;-80
2022/05/14 21:51:30;;;;;;;11.40;5.00;;;;;;;;;;7393038;19;20528;-80
2022/05/14 21:53:56;;;;;;;6.23;5.07;;;;;;;;;;7398118;19;20136;-79
2022/05/14 21:56:22;;;;;;;8.33;5.77;;;;;;;;;;7394549;19;20160;-79
2022/05/14 21:58:48;;;;;;;7.93;5.57;;;;;;;;;;7391257;19;20136;-79
2022/05/14 22:01:17;;;;;;;7.40;5.03;;;;;;;;;;7397146;19;20136;-80
2022/05/14 22:03:44;;;;;;;6.43;5.37;;;;;;;;;;7394564;19;20133;-80
2022/05/14 22:06:10;;;;;;;11.47;5.00;;;;;;;;;;7394549;19;20204;-80
2022/05/14 22:08:36;;;;;;;7.17;4.93;;;;;;;;;;7395345;19;20133;-79
2022/05/14 22:11:02;;;;;;;7.07;4.83;;;;;;;;;;7395942;19;20524;-79
2022/05/14 22:13:28;;;;;;;7.90;4.67;;;;;;;;;;7396869;19;20152;-78
2022/05/14 22:15:55;;;;;;;7.30;4.90;;;;;;;;;;7392091;19;20144;-79
2022/05/14 22:18:20;;;;;;;8.13;4.23;;;;;;;;;;7396945;19;20156;-80
2022/05/14 22:20:47;;;;;;;7.33;4.63;;;;;;;;;;7386231;19;20137;-79
2022/05/14 22:23:13;;;;;;;5.47;4.47;;;;;;;;;;7384401;19;20151;-79
2022/05/14 22:25:40;;;;;;;7.27;4.40;;;;;;;;;;7379281;19;20159;-80
2022/05/14 22:28:06;;;;;;;5.47;4.53;;;;;;;;;;7372617;19;20183;-80
2022/05/14 22:30:32;;;;;;;7.33;4.77;;;;;;;;;;7391645;19;20562;-81
2022/05/14 22:32:58;;;;;;;8.63;4.63;;;;;;;;;;7393053;19;20610;-80
2022/05/14 22:35:24;;;;;;;8.40;4.90;;;;;;;;;;7388367;19;20180;-82
2022/05/14 22:37:50;;;;;;;5.47;4.70;;;;;;;;;;7377542;19;20312;-80
2022/05/14 22:43:08;;;;;;;10.07;6.30;;;;;;;;;;7396385;19;20165;-79
2022/05/14 22:45:35;;;;;;;7.07;5.97;;;;;;;;;;7395100;19;20153;-80
2022/05/14 22:48:01;;;;;;;8.47;6.10;;;;;;;;;;7386052;19;20141;-80
2022/05/14 22:50:28;;;;;;;9.30;6.20;;;;;;;;;;7389496;19;20237;-80
2022/05/14 22:52:54;;;;;;;9.50;6.57;;;;;;;;;;7395086;19;20145;-80
2022/05/14 22:55:21;;;;;;;12.63;7.03;;;;;;;;;;7376111;19;20149;-80
2022/05/14 22:57:47;;;;;;;9.60;6.20;;;;;;;;;;7397906;19;20152;-79
2022/05/14 23:00:17;;;;;;;9.43;6.17;;;;;;;;;;7397278;19;20177;-81
2022/05/14 23:02:43;;;;;;;8.97;6.43;;;;;;;;;;7390548;19;20204;-81
2022/05/14 23:05:09;;;;;;;7.27;5.83;;;;;;;;;;7389275;19;20167;-79
2022/05/14 23:07:35;;;;;;;6.90;5.57;;;;;;;;;;7392126;19;20149;-81
2022/05/14 23:10:02;;;;;;;6.93;6.10;;;;;;;;;;7393353;19;20661;-80
2022/05/14 23:12:28;;;;;;;8.87;6.83;;;;;;;;;;7392285;19;20148;-80
2022/05/14 23:14:54;;;;;;;8.77;6.13;;;;;;;;;;7391603;19;20163;-80
2022/05/14 23:17:20;;;;;;;7.07;5.73;;;;;;;;;;7391666;19;20144;-80
2022/05/14 23:19:46;;;;;;;10.03;6.50;;;;;;;;;;7391209;19;20631;-81
2022/05/14 23:22:12;;;;;;;9.57;7.20;;;;;;;;;;7388339;19;20149;-79
2022/05/14 23:24:38;;;;;;;9.60;6.57;;;;;;;;;;7390375;19;20176;-80
2022/05/14 23:27:04;;;;;;;8.27;5.70;;;;;;;;;;7394884;19;20125;-79
2022/05/14 23:29:30;;;;;;;6.40;5.27;;;;;;;;;;7390722;19;20499;-82
2022/05/14 23:31:56;;;;;;;8.60;5.60;;;;;;;;;;7394479;19;20153;-80
2022/05/14 23:34:22;;;;;;;10.50;5.63;;;;;;;;;;7393119;19;20140;-79
2022/05/14 23:36:48;;;;;;;8.40;5.73;;;;;;;;;;7386416;19;20153;-78
2022/05/14 23:39:14;;;;;;;8.17;5.60;;;;;;;;;;7385184;19;20203;-80
2022/05/14 23:41:40;;;;;;;7.40;5.27;;;;;;;;;;7387707;19;20128;-81
2022/05/14 23:44:08;;;;;;;7.20;4.60;;;;;;;;;;7385198;19;20139;-80
2022/05/14 23:46:34;;;;;;;7.37;5.77;;;;;;;;;;7398967;19;20133;-82
2022/05/14 23:49:00;;;;;;;8.67;5.73;;;;;;;;;;7420066;19;20192;-79
2022/05/14 23:51:26;;;;;;;5.93;5.27;;;;;;;;;;7419349;19;20141;-80
2022/05/14 23:53:52;;;;;;;7.67;5.73;;;;;;;;;;7424929;19;20133;-79
2022/05/14 23:56:18;;;;;;;8.47;5.60;;;;;;;;;;7418852;19;20683;-80
